Terminal Aerodrome Forecast
Issued by NWS

Home | Current Version | Previous Version | Text Only | Print | Product List | Glossary On
Versions: 1 2 3 4 5 6 7 8 9 10 11 12 13 14 15 16 17 18 19 20 21 22 23 24 25 26 27
269
FTUS41 KOKX 250537
TAFTEB
TAF
KTEB 250537Z 2506/2606 VRB04KT P6SM SCT150 BKN250
     FM251000 VRB03KT P6SM VCTS SCT060CB BKN120
     FM251300 24007KT P6SM BKN040 BKN070
     FM252000 26008KT P6SM BKN070 BKN250 PROB30 2520/2602 4SM TSRA
      BKN040CB
     FM260200 25005KT P6SM SCT100 BKN250=

USA.gov is the U.S. government's official web portal to all federal, state and local government web resources and services.